DABB/AAE METAR and TAF weather

Enter ICAO airport designator
Station Type Date Time Source
DABB METAR 2020/07/15 07:00 UTC NOAA

DABB 150700Z 35003KT 8000 FEW023 FEW026CB BKN040 23/21 Q1013


Station Type Date Time Source
DABB Decoded METAR 2020/07/15 07:00 UTC NOAA

Annaba, Algeria (DABB) 36-50N 007-49E 4M
Jul 15, 2020 - 03:00 AM EDT / 2020.07.15 0700 UTC
Wind: from the N (350 degrees) at 3 MPH (3 KT):0
Visibility: 4 mile(s):0
Sky conditions: mostly cloudy
Weather: Cumulonimbus clouds observed
Temperature: 73 F (23 C)
Dew Point: 69 F (21 C)
Relative Humidity: 88%
Pressure (altimeter): 29.91 in. Hg (1013 hPa)
ob: DABB 150700Z 35003KT 8000 FEW023 FEW026CB BKN040 23/21 Q1013
cycle: 7

Station Type Date Time Source
DABB TAF 2020/07/15 06:34 UTC NOAA

TAF DABB 150500Z 1506/1606 10008KT 9999 FEW026 SCT100
TEMPO 1506/1518 FEW023CB BKN033 PROB30
TEMPO 1506/1515 4000 -TSRA

Example: see airport list